Time;durP1;ratioP1;P1;durP2;ratioP2;P2;SDS_P1;SDS_P2;PMS_P1;PMS_P2;Temp;Humidity;BMP_temperature;BMP_pressure;BME280_temperature;BME280_humidity;BME280_pressure;Samples;Min_cycle;Max_cycle;Signal;HPM_P1;HPM_P2
2023/05/08 00:02:20;;;;;;;14.63;10.23;;;11.50;99.90;;;;;;6211076;23;20016;-86
2023/05/08 00:04:45;;;;;;;12.10;10.35;;;11.50;99.90;;;;;;6188552;23;20051;-86
2023/05/08 00:07:11;;;;;;;12.55;10.40;;;11.60;99.90;;;;;;6187516;23;20012;-85
2023/05/08 00:09:37;;;;;;;14.00;10.32;;;11.50;99.90;;;;;;6214675;23;20103;-86
2023/05/08 00:12:03;;;;;;;12.63;10.75;;;11.50;99.90;;;;;;6189566;23;20016;-86
2023/05/08 00:14:29;;;;;;;14.40;11.07;;;11.40;99.90;;;;;;6188014;23;20472;-86
2023/05/08 00:16:54;;;;;;;12.45;10.75;;;11.40;99.90;;;;;;6188914;23;20020;-85
2023/05/08 00:19:20;;;;;;;14.85;11.05;;;11.40;99.90;;;;;;6188563;23;20016;-86
2023/05/08 00:21:46;;;;;;;14.57;11.15;;;11.30;99.90;;;;;;6188557;23;20012;-86
2023/05/08 00:24:11;;;;;;;13.13;11.18;;;11.30;99.90;;;;;;6189949;23;20055;-86
2023/05/08 00:26:37;;;;;;;15.20;10.32;;;11.30;99.90;;;;;;6189279;23;20105;-86
2023/05/08 00:29:03;;;;;;;13.63;11.27;;;11.20;99.90;;;;;;6189746;23;20090;-86
2023/05/08 00:31:29;;;;;;;13.02;11.02;;;11.20;99.90;;;;;;6188001;23;20439;-86
2023/05/08 00:33:55;;;;;;;14.77;11.05;;;11.10;99.90;;;;;;6189717;23;20150;-85
2023/05/08 00:36:20;;;;;;;15.88;11.07;;;11.10;99.90;;;;;;6237635;23;20403;-85
2023/05/08 00:38:46;;;;;;;15.95;11.65;;;11.10;99.90;;;;;;6188672;23;20066;-85
2023/05/08 00:41:12;;;;;;;14.05;12.00;;;11.00;99.90;;;;;;6213402;23;20082;-86
2023/05/08 00:43:38;;;;;;;13.77;11.75;;;11.00;99.90;;;;;;6188567;23;20367;-86
2023/05/08 00:46:05;;;;;;;18.15;12.45;;;11.00;99.90;;;;;;6188105;23;20028;-86
2023/05/08 00:48:38;;;;;;;14.45;11.40;;;10.90;99.90;;;;;;6238467;23;20024;-87
2023/05/08 00:51:06;;;;;;;15.15;12.35;;;10.90;99.90;;;;;;6188954;23;20016;-86
2023/05/08 00:53:35;;;;;;;15.30;12.20;;;10.90;99.90;;;;;;6188622;23;20024;-86
2023/05/08 00:56:01;;;;;;;15.43;12.65;;;10.80;99.90;;;;;;6213708;23;20028;-86
2023/05/08 00:58:37;;;;;;;15.25;12.00;;;10.80;99.90;;;;;;6188194;23;20027;-87
2023/05/08 01:01:03;;;;;;;15.50;12.50;;;10.70;99.90;;;;;;6189316;23;20362;-86
2023/05/08 01:03:31;;;;;;;13.75;11.68;;;10.70;99.90;;;;;;6187464;23;20428;-86
2023/05/08 01:05:56;;;;;;;15.77;12.60;;;10.70;99.90;;;;;;6188619;23;20353;-87
2023/05/08 01:08:23;;;;;;;13.38;11.98;;;10.70;99.90;;;;;;6188082;22;20505;-86
2023/05/08 01:11:02;;;;;;;14.35;12.45;;;10.60;99.90;;;;;;6188050;23;20104;-86
2023/05/08 01:13:57;;;;;;;14.80;13.18;;;10.60;99.90;;;;;;6187074;23;20008;-86
2023/05/08 01:16:55;;;;;;;14.77;12.75;;;10.60;99.90;;;;;;6186523;23;20020;-85
2023/05/08 01:19:24;;;;;;;14.43;12.63;;;10.60;99.90;;;;;;6187742;23;20020;-85
2023/05/08 01:21:59;;;;;;;16.70;12.32;;;10.60;99.90;;;;;;6213474;23;20379;-86
2023/05/08 01:24:49;;;;;;;23.50;13.25;;;10.60;99.90;;;;;;6212510;23;20055;-86
2023/05/08 01:28:00;;;;;;;16.70;13.00;;;10.60;99.90;;;;;;6188480;23;20107;-85
2023/05/08 01:30:44;;;;;;;17.77;13.23;;;10.60;99.90;;;;;;6212905;23;20444;-86
2023/05/08 01:33:19;;;;;;;17.50;13.60;;;10.50;99.90;;;;;;6188227;23;20111;-85
2023/05/08 01:35:52;;;;;;;15.18;13.38;;;10.50;99.90;;;;;;6187991;23;20081;-86
2023/05/08 01:38:26;;;;;;;15.80;12.63;;;10.50;99.90;;;;;;6212598;23;20046;-86
2023/05/08 01:41:05;;;;;;;15.32;13.45;;;10.80;99.90;;;;;;6188148;23;20259;-87
2023/05/08 01:43:54;;;;;;;17.08;13.60;;;10.40;99.90;;;;;;6238356;23;20389;-86
2023/05/08 01:46:26;;;;;;;15.52;13.55;;;10.40;99.90;;;;;;6186684;23;20407;-86
2023/05/08 01:48:59;;;;;;;18.60;13.25;;;10.40;99.90;;;;;;6188837;23;20028;-86
2023/05/08 01:51:28;;;;;;;17.05;13.90;;;10.40;99.90;;;;;;6187806;23;20527;-86
2023/05/08 01:53:59;;;;;;;16.27;13.27;;;10.60;99.90;;;;;;6212941;23;20091;-86
2023/05/08 01:56:27;;;;;;;14.93;13.32;;;10.40;99.90;;;;;;6213359;23;21187;-85
2023/05/08 01:59:02;;;;;;;13.77;12.38;;;10.30;99.90;;;;;;6238015;23;20012;-86
2023/05/08 02:01:33;;;;;;;14.90;13.32;;;10.40;99.90;;;;;;6187668;23;20016;-87
2023/05/08 02:04:00;;;;;;;16.25;13.68;;;10.30;99.90;;;;;;6188875;23;20095;-86
2023/05/08 02:06:27;;;;;;;14.68;13.07;;;10.70;99.90;;;;;;6211369;23;20074;-86
2023/05/08 02:08:58;;;;;;;17.52;13.77;;;10.30;99.90;;;;;;6188358;23;20095;-86
2023/05/08 02:11:25;;;;;;;16.88;13.75;;;10.30;99.90;;;;;;6212389;23;20016;-86
2023/05/08 02:13:51;;;;;;;15.40;13.23;;;10.30;99.90;;;;;;6187811;23;20020;-86
2023/05/08 02:16:21;;;;;;;16.13;13.23;;;10.20;99.90;;;;;;6187001;23;20448;-85
2023/05/08 02:18:52;;;;;;;16.60;13.50;;;10.20;99.90;;;;;;6189161;23;20062;-85
2023/05/08 02:21:19;;;;;;;16.02;14.25;;;10.20;99.90;;;;;;6186646;23;20012;-87
2023/05/08 02:23:46;;;;;;;17.73;13.40;;;10.20;99.90;;;;;;6188781;23;20020;-87
2023/05/08 02:26:14;;;;;;;15.60;12.98;;;10.10;99.90;;;;;;6187961;23;20020;-86
2023/05/08 02:28:41;;;;;;;16.60;13.32;;;10.10;99.90;;;;;;6187340;23;20012;-86
2023/05/08 02:31:09;;;;;;;17.05;13.88;;;10.10;99.90;;;;;;6188141;23;20020;-86
2023/05/08 02:33:38;;;;;;;15.88;13.93;;;10.00;99.90;;;;;;6188577;23;20020;-87
2023/05/08 02:36:06;;;;;;;17.17;13.90;;;10.00;99.90;;;;;;6187473;23;20027;-87
2023/05/08 02:38:34;;;;;;;16.35;14.02;;;10.00;99.90;;;;;;6187960;23;20016;-86
2023/05/08 02:41:02;;;;;;;16.83;13.10;;;10.00;99.90;;;;;;6187265;23;20027;-86
2023/05/08 02:43:28;;;;;;;15.23;13.63;;;9.90;99.90;;;;;;6187514;23;20413;-86
2023/05/08 02:46:15;;;;;;;15.18;13.18;;;9.90;99.90;;;;;;6188048;23;20020;-86
2023/05/08 02:48:52;;;;;;;16.42;13.75;;;9.90;99.90;;;;;;6212356;23;20016;-86
2023/05/08 02:51:24;;;;;;;17.98;14.10;;;9.80;99.90;;;;;;6187857;23;20012;-86
2023/05/08 02:53:56;;;;;;;17.98;14.70;;;9.80;99.90;;;;;;6213270;23;20020;-86
2023/05/08 02:56:36;;;;;;;17.33;13.97;;;9.70;99.90;;;;;;6212221;23;20017;-86
2023/05/08 02:59:21;;;;;;;17.35;14.48;;;9.70;99.90;;;;;;6213241;23;20027;-86
2023/05/08 03:01:57;;;;;;;19.73;14.93;;;9.70;99.90;;;;;;6187711;23;20048;-87
2023/05/08 03:04:31;;;;;;;15.73;13.77;;;9.70;99.90;;;;;;6188634;23;20012;-86
2023/05/08 03:06:58;;;;;;;16.85;14.55;;;9.70;99.90;;;;;;6187613;23;20020;-86
2023/05/08 03:09:30;;;;;;;16.90;14.52;;;9.60;99.90;;;;;;6211931;23;20028;-86
2023/05/08 03:12:03;;;;;;;16.42;14.68;;;9.80;99.90;;;;;;6212927;23;20461;-86
2023/05/08 03:14:34;;;;;;;20.50;15.07;;;9.80;99.90;;;;;;6186615;23;20043;-85
2023/05/08 03:17:06;;;;;;;17.45;15.35;;;9.60;99.90;;;;;;6186359;23;20099;-86
2023/05/08 03:19:37;;;;;;;22.10;15.47;;;9.60;99.90;;;;;;6212511;23;20031;-86
2023/05/08 03:22:05;;;;;;;18.60;15.73;;;9.60;99.90;;;;;;6187724;23;20251;-86
2023/05/08 03:24:37;;;;;;;19.27;14.27;;;9.50;99.90;;;;;;6186924;23;20016;-86
2023/05/08 03:27:04;;;;;;;17.52;15.63;;;9.60;99.90;;;;;;6212252;23;20020;-87
2023/05/08 03:29:33;;;;;;;16.08;14.38;;;9.60;99.90;;;;;;6213009;23;20202;-87
2023/05/08 03:32:01;;;;;;;18.00;14.80;;;9.60;99.90;;;;;;6186772;23;20436;-85
2023/05/08 03:34:28;;;;;;;18.48;15.68;;;9.70;99.90;;;;;;6188033;23;20460;-86
2023/05/08 03:36:55;;;;;;;18.35;15.50;;;9.50;99.90;;;;;;6188026;23;20012;-86
2023/05/08 03:39:21;;;;;;;20.77;15.35;;;9.50;99.90;;;;;;6186601;23;20058;-85
2023/05/08 03:41:48;;;;;;;16.23;14.50;;;9.70;99.90;;;;;;6190058;23;20819;-86
2023/05/08 03:44:15;;;;;;;16.42;14.65;;;9.50;99.90;;;;;;6188137;23;20433;-86
2023/05/08 03:46:41;;;;;;;16.20;14.40;;;9.50;99.90;;;;;;6188804;23;20047;-86
2023/05/08 03:49:08;;;;;;;17.95;14.15;;;9.40;99.90;;;;;;6189297;23;20381;-85
2023/05/08 03:51:38;;;;;;;16.77;14.10;;;9.40;99.90;;;;;;6188062;23;20012;-86
2023/05/08 03:54:03;;;;;;;17.08;14.40;;;9.50;99.90;;;;;;6214440;23;20027;-85
2023/05/08 03:56:29;;;;;;;21.05;15.07;;;9.40;99.90;;;;;;6215053;23;20404;-86
2023/05/08 03:59:10;;;;;;;16.67;14.82;;;9.40;99.90;;;;;;6214304;23;20034;-87
2023/05/08 04:01:43;;;;;;;16.00;14.27;;;9.40;99.90;;;;;;6189409;23;20340;-85
2023/05/08 04:04:08;;;;;;;;;;;9.40;99.90;;;;;;6190495;23;20020;-85
2023/05/08 04:07:00;;;;;;;17.17;13.52;;;9.40;99.90;;;;;;6188167;23;19926;-86
2023/05/08 04:09:27;;;;;;;15.60;13.90;;;9.40;99.90;;;;;;6188090;23;20515;-86
2023/05/08 04:12:13;;;;;;;16.83;14.98;;;9.40;99.90;;;;;;6189433;23;20020;-85
2023/05/08 04:14:44;;;;;;;17.30;13.35;;;9.40;99.90;;;;;;6214278;23;20456;-86
2023/05/08 04:17:13;;;;;;;16.83;14.43;;;9.40;99.90;;;;;;6188565;23;20023;-87
2023/05/08 04:19:45;;;;;;;15.82;13.68;;;9.40;99.90;;;;;;6186710;23;20016;-86
2023/05/08 04:22:19;;;;;;;14.15;12.60;;;9.50;99.90;;;;;;6188716;23;20020;-86
2023/05/08 04:24:48;;;;;;;14.68;13.18;;;9.40;99.90;;;;;;6188931;23;20527;-87
2023/05/08 04:27:15;;;;;;;14.32;12.38;;;9.40;99.90;;;;;;6188250;23;20413;-86
2023/05/08 04:29:41;;;;;;;17.02;13.38;;;9.50;99.90;;;;;;6189525;23;20020;-86
2023/05/08 04:32:08;;;;;;;17.40;13.20;;;9.50;99.90;;;;;;6189768;23;20020;-87
2023/05/08 04:34:35;;;;;;;14.48;12.77;;;9.60;99.90;;;;;;6188300;23;20099;-86
2023/05/08 04:37:00;;;;;;;13.15;11.75;;;9.60;99.90;;;;;;6188464;23;20016;-86
2023/05/08 04:39:26;;;;;;;16.52;11.85;;;9.60;99.90;;;;;;6188641;23;20051;-86
2023/05/08 04:41:54;;;;;;;17.08;12.25;;;9.80;99.90;;;;;;6187772;23;20091;-86
2023/05/08 04:44:20;;;;;;;14.65;11.32;;;9.70;99.90;;;;;;6189128;23;20593;-86
2023/05/08 04:46:45;;;;;;;12.93;11.15;;;9.90;99.90;;;;;;6188901;23;20425;-85
2023/05/08 04:49:11;;;;;;;14.27;11.88;;;9.80;99.90;;;;;;6189159;23;20081;-85
2023/05/08 04:51:37;;;;;;;12.38;10.35;;;9.90;99.90;;;;;;6189039;23;20048;-86
2023/05/08 04:54:03;;;;;;;12.95;11.15;;;9.90;99.90;;;;;;6189319;23;20460;-86
2023/05/08 04:56:28;;;;;;;13.60;11.40;;;9.90;99.90;;;;;;6188468;23;20023;-87
2023/05/08 04:58:54;;;;;;;13.52;11.43;;;10.00;99.90;;;;;;6189188;23;20023;-86
2023/05/08 05:01:29;;;;;;;13.23;11.52;;;10.00;99.90;;;;;;6189330;23;20023;-86
2023/05/08 05:03:54;;;;;;;12.95;10.10;;;10.10;99.90;;;;;;6189878;23;20248;-86
2023/05/08 05:06:20;;;;;;;14.00;11.50;;;10.20;99.90;;;;;;6189423;23;20099;-87
2023/05/08 05:08:46;;;;;;;14.02;11.32;;;10.20;99.90;;;;;;6189235;23;20012;-86
2023/05/08 05:11:12;;;;;;;13.38;10.95;;;10.30;99.90;;;;;;6189906;23;20132;-86
2023/05/08 05:13:37;;;;;;;16.85;10.98;;;10.30;99.90;;;;;;6189640;23;20381;-86
2023/05/08 05:16:03;;;;;;;13.55;10.63;;;10.40;99.90;;;;;;6189288;23;20346;-87
2023/05/08 05:18:29;;;;;;;13.07;10.50;;;10.50;99.90;;;;;;6189222;23;20532;-86
2023/05/08 05:20:57;;;;;;;13.55;11.43;;;10.50;99.90;;;;;;6189324;23;20024;-86
2023/05/08 05:23:26;;;;;;;15.45;10.63;;;10.60;99.90;;;;;;6188037;23;20020;-87
2023/05/08 05:25:52;;;;;;;15.18;10.98;;;10.60;99.90;;;;;;6214865;23;20074;-86
2023/05/08 05:28:18;;;;;;;14.05;10.40;;;10.70;99.90;;;;;;6188541;23;20008;-87
2023/05/08 05:30:47;;;;;;;11.95;10.60;;;10.80;99.90;;;;;;6187760;23;20019;-87
2023/05/08 05:33:12;;;;;;;12.63;10.55;;;10.80;99.90;;;;;;6188591;23;20050;-86
2023/05/08 05:35:50;;;;;;;11.65;10.38;;;10.90;99.90;;;;;;6188706;23;20383;-87
2023/05/08 05:38:17;;;;;;;14.30;10.75;;;10.90;99.90;;;;;;6213160;23;20409;-87
2023/05/08 05:40:42;;;;;;;11.30;10.10;;;11.00;99.90;;;;;;6188886;23;20020;-86
2023/05/08 05:43:08;;;;;;;13.25;10.13;;;11.10;99.90;;;;;;6189212;23;20325;-86
2023/05/08 05:45:35;;;;;;;13.52;10.95;;;11.10;99.90;;;;;;6187612;23;20026;-86
2023/05/08 05:48:01;;;;;;;12.15;10.82;;;11.20;99.90;;;;;;6188336;23;20479;-87
2023/05/08 05:50:27;;;;;;;16.23;11.52;;;11.20;99.90;;;;;;6187497;23;20016;-87
2023/05/08 05:52:53;;;;;;;14.60;11.40;;;11.30;99.90;;;;;;6188060;23;20127;-87
2023/05/08 05:55:20;;;;;;;12.02;9.85;;;11.30;99.90;;;;;;6188611;23;20012;-86
2023/05/08 05:57:46;;;;;;;17.30;10.68;;;11.40;99.90;;;;;;6187873;23;20464;-87
2023/05/08 06:00:12;;;;;;;12.82;10.88;;;11.40;99.90;;;;;;6188041;23;20555;-87
2023/05/08 06:02:38;;;;;;;13.27;10.80;;;11.50;99.90;;;;;;6183034;23;20456;-88
2023/05/08 06:05:04;;;;;;;17.10;10.63;;;11.50;99.90;;;;;;6182099;23;20020;-86
2023/05/08 06:07:33;;;;;;;12.77;11.18;;;11.60;99.90;;;;;;6184536;23;20087;-87
2023/05/08 06:09:58;;;;;;;15.52;11.25;;;11.70;99.90;;;;;;6212412;23;20016;-86
2023/05/08 06:12:25;;;;;;;14.20;10.98;;;11.80;99.90;;;;;;6187042;23;20212;-87
2023/05/08 06:14:54;;;;;;;14.10;11.52;;;11.70;99.90;;;;;;6189047;23;20020;-87
2023/05/08 06:17:21;;;;;;;22.00;11.20;;;11.90;99.90;;;;;;6211420;23;20020;-86
2023/05/08 06:19:54;;;;;;;15.98;10.82;;;11.70;99.90;;;;;;6187467;23;20103;-86
2023/05/08 06:22:33;;;;;;;14.23;11.18;;;12.00;99.90;;;;;;6186969;23;20023;-86
2023/05/08 06:25:10;;;;;;;14.20;11.45;;;12.20;99.90;;;;;;6187981;23;20016;-86
2023/05/08 06:27:36;;;;;;;13.18;11.02;;;12.30;99.90;;;;;;6186667;23;20050;-87
2023/05/08 06:30:06;;;;;;;13.57;10.98;;;12.40;99.90;;;;;;6213726;23;20020;-86
2023/05/08 06:32:32;;;;;;;17.90;10.68;;;12.50;99.90;;;;;;6211349;23;20046;-87
2023/05/08 06:34:58;;;;;;;16.25;10.90;;;12.60;99.90;;;;;;6187095;23;20468;-86
2023/05/08 06:37:23;;;;;;;12.50;10.85;;;12.70;99.90;;;;;;6187140;23;20016;-87
2023/05/08 06:39:49;;;;;;;16.92;11.50;;;12.80;99.90;;;;;;6212978;23;20086;-86
2023/05/08 06:42:15;;;;;;;16.48;10.65;;;12.90;99.90;;;;;;6212333;23;20073;-87
2023/05/08 06:44:43;;;;;;;15.82;10.82;;;12.90;99.90;;;;;;6212286;23;20012;-88
2023/05/08 06:47:12;;;;;;;15.10;11.18;;;13.00;99.90;;;;;;6186657;23;20016;-87
2023/05/08 06:49:38;;;;;;;13.25;9.93;;;12.90;99.90;;;;;;6187434;23;20048;-87
2023/05/08 06:52:13;;;;;;;13.82;9.93;;;12.90;99.90;;;;;;6187621;23;20437;-86
2023/05/08 06:54:40;;;;;;;13.70;11.32;;;12.90;99.90;;;;;;6186855;23;20536;-86
2023/05/08 06:57:07;;;;;;;11.45;9.75;;;13.00;99.90;;;;;;6188312;23;20016;-87
2023/05/08 06:59:33;;;;;;;16.95;10.23;;;13.10;99.90;;;;;;6213102;23;20024;-87
2023/05/08 07:02:01;;;;;;;15.15;11.18;;;13.20;99.90;;;;;;6187178;23;20071;-88
2023/05/08 07:04:29;;;;;;;12.07;10.57;;;13.30;99.90;;;;;;6212997;23;20016;-88
2023/05/08 07:06:55;;;;;;;14.63;10.63;;;13.40;99.90;;;;;;6187872;23;20061;-88
2023/05/08 07:09:21;;;;;;;11.35;9.88;;;13.50;99.90;;;;;;6187669;22;20016;-87
2023/05/08 07:11:49;;;;;;;11.25;10.05;;;13.50;99.90;;;;;;6186998;23;20520;-88
2023/05/08 07:14:15;;;;;;;12.63;10.07;;;13.50;99.90;;;;;;6189137;23;20444;-87
2023/05/08 07:16:41;;;;;;;13.98;10.32;;;13.60;99.90;;;;;;6188298;23;20496;-87
2023/05/08 07:19:06;;;;;;;21.17;10.65;;;13.70;99.90;;;;;;6190795;23;20433;-87
2023/05/08 07:21:36;;;;;;;11.02;9.35;;;13.70;99.90;;;;;;6188959;23;20022;-86
2023/05/08 07:24:02;;;;;;;13.35;9.88;;;13.80;99.90;;;;;;6189365;23;20024;-87
2023/05/08 07:26:28;;;;;;;20.52;10.27;;;13.90;99.90;;;;;;6188465;23;20023;-86
2023/05/08 07:28:54;;;;;;;15.65;10.07;;;13.90;99.90;;;;;;6189519;23;20016;-86
2023/05/08 07:31:20;;;;;;;14.13;10.20;;;14.00;99.90;;;;;;6187838;23;20050;-87
2023/05/08 07:33:46;;;;;;;19.27;10.52;;;14.10;99.90;;;;;;6189528;23;20016;-87
2023/05/08 07:36:12;;;;;;;10.98;9.80;;;14.20;99.90;;;;;;6188190;23;20066;-86
2023/05/08 07:38:39;;;;;;;13.00;10.43;;;14.40;99.90;;;;;;6214694;23;20019;-86
2023/05/08 07:41:05;;;;;;;11.88;9.95;;;14.20;99.90;;;;;;6189282;23;20024;-86
2023/05/08 07:43:31;;;;;;;17.20;11.00;;;14.30;99.90;;;;;;6188080;23;20016;-86
2023/05/08 07:45:57;;;;;;;12.82;10.13;;;14.30;99.90;;;;;;6188931;23;20316;-87
2023/05/08 07:48:25;;;;;;;16.90;11.10;;;14.40;99.90;;;;;;6213918;23;20070;-86
2023/05/08 07:50:51;;;;;;;22.30;10.60;;;14.40;99.90;;;;;;6187493;23;20017;-86
2023/05/08 07:53:32;;;;;;;13.48;10.50;;;14.40;99.90;;;;;;6189365;23;20039;-87
2023/05/08 07:55:57;;;;;;;14.98;10.35;;;14.50;99.90;;;;;;6189214;23;20031;-87
2023/05/08 07:58:23;;;;;;;16.33;10.40;;;14.60;99.90;;;;;;6188420;23;20011;-87
2023/05/08 08:00:49;;;;;;;12.60;10.02;;;14.60;99.90;;;;;;6188193;23;20459;-86
2023/05/08 08:03:15;;;;;;;13.45;10.60;;;14.60;99.90;;;;;;6188873;23;20024;-85
2023/05/08 08:05:41;;;;;;;15.30;10.35;;;14.70;99.90;;;;;;6212556;23;20448;-85
2023/05/08 08:08:06;;;;;;;17.75;10.60;;;14.70;99.90;;;;;;6188650;23;20016;-85
2023/05/08 08:10:32;;;;;;;12.02;10.63;;;14.70;99.90;;;;;;6187061;23;20314;-85
2023/05/08 08:13:00;;;;;;;12.75;10.70;;;14.80;99.90;;;;;;6187501;23;20058;-86
2023/05/08 08:15:27;;;;;;;19.42;10.80;;;14.90;99.90;;;;;;6187515;23;20039;-84
2023/05/08 08:17:53;;;;;;;15.27;11.23;;;15.00;99.90;;;;;;6187613;23;20031;-85
2023/05/08 08:20:19;;;;;;;12.98;10.70;;;15.10;99.90;;;;;;6237385;23;20063;-84
2023/05/08 08:22:45;;;;;;;11.45;10.23;;;15.20;99.90;;;;;;6187922;23;20020;-85
2023/05/08 08:25:12;;;;;;;13.90;10.38;;;15.30;99.90;;;;;;6212116;23;20128;-83
2023/05/08 08:27:38;;;;;;;14.27;10.68;;;15.40;99.90;;;;;;6186610;23;20012;-84
2023/05/08 08:30:04;;;;;;;17.90;11.48;;;15.50;99.90;;;;;;6187532;23;20016;-83
2023/05/08 08:32:30;;;;;;;19.30;10.88;;;15.60;99.90;;;;;;6186273;23;20027;-85
2023/05/08 08:34:56;;;;;;;12.00;10.38;;;15.70;99.90;;;;;;6188861;23;20107;-84
2023/05/08 08:37:26;;;;;;;13.10;11.32;;;15.80;99.90;;;;;;6211887;23;20438;-85
2023/05/08 08:39:52;;;;;;;11.95;10.75;;;15.90;99.90;;;;;;6187691;23;20449;-84
2023/05/08 08:42:18;;;;;;;13.32;10.75;;;15.90;99.90;;;;;;6237746;23;20019;-85
2023/05/08 08:44:44;;;;;;;13.68;11.20;;;15.90;99.90;;;;;;6188144;23;20340;-85
2023/05/08 08:47:11;;;;;;;13.57;11.57;;;15.90;99.90;;;;;;6186448;23;20090;-84
2023/05/08 08:49:47;;;;;;;13.15;10.82;;;16.00;99.90;;;;;;6187304;23;20428;-84
2023/05/08 08:52:29;;;;;;;12.13;10.73;;;16.10;99.90;;;;;;6186604;23;20047;-85
2023/05/08 08:54:56;;;;;;;12.20;10.90;;;16.20;99.90;;;;;;6187106;23;20047;-85
2023/05/08 08:57:23;;;;;;;12.23;10.85;;;16.20;99.90;;;;;;6187350;23;20124;-84
2023/05/08 08:59:49;;;;;;;12.95;11.55;;;16.20;99.90;;;;;;6187809;23;20100;-84
2023/05/08 09:02:18;;;;;;;14.05;11.05;;;16.20;99.90;;;;;;6186546;23;20330;-84
2023/05/08 09:04:44;;;;;;;14.85;10.65;;;16.20;99.90;;;;;;6212505;23;20027;-86
2023/05/08 09:07:11;;;;;;;15.60;11.73;;;16.30;99.90;;;;;;6187574;23;20035;-85
2023/05/08 09:09:39;;;;;;;12.15;10.85;;;16.40;99.90;;;;;;6186296;23;20332;-86
2023/05/08 09:12:06;;;;;;;21.60;13.02;;;16.40;99.90;;;;;;6187578;23;20016;-85
2023/05/08 09:14:32;;;;;;;17.10;11.75;;;16.40;99.90;;;;;;6187405;23;20075;-86
2023/05/08 09:16:57;;;;;;;16.40;11.43;;;16.50;99.90;;;;;;6211315;23;20016;-86
2023/05/08 09:19:25;;;;;;;13.00;11.70;;;16.60;99.90;;;;;;6187644;23;20440;-87
2023/05/08 09:21:51;;;;;;;13.80;11.05;;;16.70;99.90;;;;;;6211680;23;20372;-88
2023/05/08 09:24:17;;;;;;;12.63;11.32;;;16.80;99.90;;;;;;6187114;23;20023;-86
2023/05/08 09:26:43;;;;;;;13.30;11.60;;;16.80;99.90;;;;;;6211966;23;20016;-85
2023/05/08 09:29:09;;;;;;;15.38;11.30;;;16.90;99.90;;;;;;6186631;23;20063;-85
2023/05/08 09:31:38;;;;;;;13.85;10.98;;;17.00;99.90;;;;;;6186572;23;20159;-85
2023/05/08 09:34:07;;;;;;;14.27;11.23;;;17.10;99.90;;;;;;6187568;23;20016;-85
2023/05/08 09:36:33;;;;;;;13.68;11.20;;;17.20;99.90;;;;;;6185407;23;20429;-86
2023/05/08 09:39:00;;;;;;;13.48;11.90;;;17.40;99.90;;;;;;6212335;23;20023;-85
2023/05/08 09:41:26;;;;;;;12.75;11.45;;;17.60;99.90;;;;;;6186839;23;20016;-85
2023/05/08 09:44:09;;;;;;;16.50;11.77;;;17.80;99.90;;;;;;6211775;23;20332;-85
2023/05/08 09:46:35;;;;;;;14.55;11.88;;;17.90;99.90;;;;;;6186746;23;20048;-86
2023/05/08 09:49:02;;;;;;;14.95;11.73;;;18.00;99.90;;;;;;6187628;23;20023;-86
2023/05/08 09:51:30;;;;;;;16.75;11.48;;;18.10;99.90;;;;;;6210678;23;20028;-85
2023/05/08 09:53:57;;;;;;;12.90;10.80;;;18.20;99.90;;;;;;6187532;23;20020;-85
2023/05/08 09:56:35;;;;;;;13.35;11.45;;;18.30;99.90;;;;;;6212643;23;20028;-86
2023/05/08 09:59:03;;;;;;;13.65;12.15;;;18.40;99.90;;;;;;6236985;23;20024;-86
2023/05/08 10:01:31;;;;;;;13.00;11.48;;;18.40;99.90;;;;;;6186085;23;20016;-86
2023/05/08 10:03:57;;;;;;;15.68;11.82;;;18.50;99.90;;;;;;6212056;23;20012;-85
2023/05/08 10:06:24;;;;;;;13.38;11.98;;;18.40;99.90;;;;;;6186494;23;20332;-86
2023/05/08 10:09:06;;;;;;;16.52;11.18;;;18.60;99.90;;;;;;6188004;23;20019;-86
2023/05/08 10:11:31;;;;;;;14.43;12.20;;;18.70;99.90;;;;;;6211301;23;20028;-85
2023/05/08 10:13:58;;;;;;;17.08;12.15;;;18.70;99.90;;;;;;6187984;23;20016;-85
2023/05/08 10:16:27;;;;;;;14.95;12.05;;;18.70;99.90;;;;;;6210965;23;20369;-85
2023/05/08 10:18:59;;;;;;;14.02;11.85;;;18.80;99.90;;;;;;6187742;23;20058;-85
2023/05/08 10:21:29;;;;;;;17.48;12.13;;;18.80;99.90;;;;;;6211404;23;20020;-86
2023/05/08 10:23:58;;;;;;;24.25;13.07;;;18.90;99.90;;;;;;6188706;23;20066;-86
2023/05/08 10:26:36;;;;;;;31.02;12.95;;;18.90;99.90;;;;;;6186126;23;20086;-85
2023/05/08 10:29:08;;;;;;;14.50;12.05;;;19.00;99.90;;;;;;6188075;23;20081;-85
2023/05/08 10:31:35;;;;;;;17.55;12.85;;;19.00;99.90;;;;;;6211367;23;20441;-85
2023/05/08 10:34:02;;;;;;;17.80;12.82;;;18.90;99.90;;;;;;6235817;23;20039;-88
2023/05/08 10:36:30;;;;;;;18.13;12.60;;;19.00;99.90;;;;;;6187945;23;20016;-90
2023/05/08 10:38:57;;;;;;;19.33;12.32;;;19.10;99.90;;;;;;6189633;23;20094;-89
2023/05/08 10:41:44;;;;;;;14.02;12.52;;;19.10;99.90;;;;;;6187472;23;20028;-91
2023/05/08 10:44:10;;;;;;;13.93;12.43;;;19.10;99.90;;;;;;6186285;23;20077;-91
2023/05/08 10:47:00;;;;;;;16.92;13.35;;;19.20;99.90;;;;;;6175656;23;20074;-91
2023/05/08 10:52:48;;;;;;;18.05;14.73;;;19.60;99.90;;;;;;6158371;23;20102;-87
2023/05/08 10:55:20;;;;;;;15.75;14.10;;;19.70;99.90;;;;;;6205018;23;20017;-85
2023/05/08 10:58:28;;;;;;;27.52;13.43;;;19.70;99.90;;;;;;6181288;23;20017;-87
2023/05/08 11:01:37;;;;;;;15.77;13.10;;;19.80;99.90;;;;;;6208416;23;20036;-88
2023/05/08 11:07:17;;;;;;;;;;;20.00;99.90;;;;;;6206856;23;20031;-87
2023/05/08 11:10:14;;;;;;;21.35;14.73;;;20.00;99.90;;;;;;6182509;23;19924;-88
2023/05/08 11:12:49;;;;;;;16.90;15.20;;;19.90;99.90;;;;;;6137294;23;20020;-84
2023/05/08 11:15:46;;;;;;;17.05;14.45;;;20.20;99.90;;;;;;6208896;23;20017;-89
2023/05/08 11:18:16;;;;;;;16.58;14.63;;;20.20;99.90;;;;;;6183019;23;20354;-89
2023/05/08 11:20:58;;;;;;;14.43;13.00;;;20.30;99.90;;;;;;6182467;23;20021;-90
2023/05/08 11:23:26;;;;;;;16.55;13.75;;;20.50;99.90;;;;;;6180544;23;20025;-90
2023/05/08 11:26:02;;;;;;;18.30;15.02;;;20.50;99.90;;;;;;6183122;23;20540;-88
2023/05/08 11:28:56;;;;;;;17.17;14.90;;;20.60;99.90;;;;;;6181849;23;20024;-88
2023/05/08 11:31:45;;;;;;;23.90;15.25;;;20.70;99.90;;;;;;6181800;23;20025;-90
2023/05/08 11:35:01;;;;;;;15.32;13.50;;;20.80;99.90;;;;;;6183479;23;20020;-88
2023/05/08 11:40:44;;;;;;;30.02;14.35;;;21.00;99.90;;;;;;6206759;23;20028;-88
2023/05/08 11:43:32;;;;;;;18.00;15.32;;;20.80;99.90;;;;;;6177792;23;20051;-85
2023/05/08 11:46:14;;;;;;;17.98;14.95;;;20.90;99.90;;;;;;6206450;23;20506;-86
2023/05/08 11:48:43;;;;;;;23.25;15.15;;;20.80;99.90;;;;;;6206400;23;20083;-86
2023/05/08 11:51:09;;;;;;;17.00;15.20;;;20.80;99.90;;;;;;6180079;23;20076;-86
2023/05/08 11:53:37;;;;;;;25.17;14.93;;;20.90;99.90;;;;;;6181088;23;20024;-85
2023/05/08 11:56:03;;;;;;;18.33;15.95;;;21.00;99.90;;;;;;6181528;23;20453;-86
2023/05/08 11:58:29;;;;;;;21.13;16.75;;;21.10;99.90;;;;;;6181218;23;20051;-85
2023/05/08 12:01:05;;;;;;;17.90;15.40;;;21.20;99.90;;;;;;6209992;23;20024;-85
2023/05/08 12:03:31;;;;;;;19.70;14.80;;;21.30;99.90;;;;;;6186822;23;20016;-85
2023/05/08 12:05:58;;;;;;;21.52;16.08;;;21.40;99.90;;;;;;6186829;23;20063;-83
2023/05/08 12:08:24;;;;;;;20.48;15.23;;;21.40;99.90;;;;;;6208400;23;20100;-85
2023/05/08 12:10:50;;;;;;;18.27;15.07;;;21.50;99.90;;;;;;6183771;23;20202;-85
2023/05/08 12:13:21;;;;;;;18.48;14.82;;;21.50;99.90;;;;;;6184841;23;20021;-86
2023/05/08 12:15:56;;;;;;;17.40;15.55;;;21.50;99.90;;;;;;6183204;23;20025;-88
2023/05/08 12:18:23;;;;;;;24.77;15.73;;;21.60;99.90;;;;;;6182977;23;20079;-88
2023/05/08 12:20:58;;;;;;;16.10;14.05;;;21.60;99.90;;;;;;6183777;23;20017;-85
2023/05/08 12:23:26;;;;;;;23.35;15.13;;;21.70;99.90;;;;;;6183722;23;20019;-86
2023/05/08 12:25:52;;;;;;;17.30;15.38;;;21.80;99.90;;;;;;6182452;23;20460;-84
2023/05/08 12:28:18;;;;;;;18.50;15.45;;;21.90;99.90;;;;;;6182864;23;20023;-84
2023/05/08 12:30:44;;;;;;;18.70;14.43;;;21.90;99.90;;;;;;6183202;23;20012;-85
2023/05/08 12:33:10;;;;;;;18.83;14.55;;;22.00;99.90;;;;;;6182493;23;20024;-85
2023/05/08 12:35:38;;;;;;;17.10;15.27;;;22.10;99.90;;;;;;6182976;23;20367;-84
2023/05/08 12:38:08;;;;;;;19.77;15.10;;;22.10;99.90;;;;;;6184295;23;20507;-84
2023/05/08 12:40:41;;;;;;;19.83;15.05;;;22.20;99.90;;;;;;6182461;23;20457;-84
2023/05/08 12:43:07;;;;;;;18.58;14.57;;;22.40;99.90;;;;;;6184221;23;20021;-85
2023/05/08 12:45:38;;;;;;;20.35;15.13;;;22.40;99.90;;;;;;6183215;23;20032;-85
2023/05/08 12:48:06;;;;;;;16.90;13.80;;;22.50;99.90;;;;;;6183287;23;20052;-85
2023/05/08 12:50:39;;;;;;;20.92;13.75;;;22.50;99.90;;;;;;6183212;23;20106;-86
2023/05/08 12:53:08;;;;;;;22.77;14.73;;;22.40;99.90;;;;;;6183756;23;20013;-84
2023/05/08 12:55:35;;;;;;;14.95;13.10;;;22.50;99.90;;;;;;6183674;23;20465;-84